Time;durP1;ratioP1;P1;durP2;ratioP2;P2;SDS_P1;SDS_P2;PMS_P1;PMS_P2;Temp;Humidity;BMP_temperature;BMP_pressure;BME280_temperature;BME280_humidity;BME280_pressure;Samples;Min_cycle;Max_cycle;Signal;HPM_P1;HPM_P2
2022/03/10 00:01:56;;;;;;;23.10;15.20;;;;;;;;;;5038071;28;20356;-60
2022/03/10 00:04:22;;;;;;;23.20;14.57;;;;;;;;;;5038486;28;20222;-60
2022/03/10 00:06:47;;;;;;;26.07;15.27;;;;;;;;;;5044925;28;20214;-60
2022/03/10 00:09:12;;;;;;;24.07;15.17;;;;;;;;;;5044883;28;20214;-60
2022/03/10 00:11:38;;;;;;;25.53;15.43;;;;;;;;;;5044494;28;20211;-60
2022/03/10 00:14:03;;;;;;;23.17;15.23;;;;;;;;;;5044747;28;20869;-60
2022/03/10 00:16:28;;;;;;;24.80;15.60;;;;;;;;;;5045824;28;20211;-60
2022/03/10 00:18:54;;;;;;;22.30;14.13;;;;;;;;;;5044462;28;20227;-60
2022/03/10 00:21:19;;;;;;;22.73;15.50;;;;;;;;;;5037952;28;20310;-60
2022/03/10 00:23:44;;;;;;;25.67;15.03;;;;;;;;;;5037121;28;20267;-60
2022/03/10 00:26:10;;;;;;;23.43;15.13;;;;;;;;;;5037002;28;20211;-60
2022/03/10 00:28:35;;;;;;;23.20;15.00;;;;;;;;;;5043234;28;20686;-60
2022/03/10 00:31:00;;;;;;;25.47;14.23;;;;;;;;;;5062857;28;20238;-61
2022/03/10 00:33:26;;;;;;;23.93;14.67;;;;;;;;;;5063396;28;20221;-60
2022/03/10 00:35:51;;;;;;;24.40;14.53;;;;;;;;;;5064726;28;20281;-60
2022/03/10 00:38:16;;;;;;;23.35;14.43;;;;;;;;;;5063614;28;20203;-60
2022/03/10 00:40:41;;;;;;;23.60;14.93;;;;;;;;;;5063378;28;20257;-60
2022/03/10 00:43:13;;;;;;;23.40;14.33;;;;;;;;;;5042683;28;20335;-60
2022/03/10 00:45:38;;;;;;;20.97;14.70;;;;;;;;;;5042980;28;20219;-60
2022/03/10 00:48:04;;;;;;;23.77;14.40;;;;;;;;;;5035591;28;20231;-60
2022/03/10 00:50:29;;;;;;;23.37;14.70;;;;;;;;;;5039710;28;20231;-60
2022/03/10 00:52:54;;;;;;;24.03;14.73;;;;;;;;;;5044792;28;20210;-60
2022/03/10 00:55:19;;;;;;;23.40;14.70;;;;;;;;;;5043095;28;20300;-60
2022/03/10 00:57:45;;;;;;;21.97;14.43;;;;;;;;;;5045164;28;20629;-60
2022/03/10 01:00:11;;;;;;;24.50;15.27;;;;;;;;;;5062879;28;20218;-60
2022/03/10 01:02:36;;;;;;;24.70;15.97;;;;;;;;;;5063448;28;20215;-60
2022/03/10 01:05:02;;;;;;;24.63;15.23;;;;;;;;;;5053419;28;20211;-60
2022/03/10 01:07:27;;;;;;;23.87;15.37;;;;;;;;;;5018298;28;20752;-60
2022/03/10 01:09:52;;;;;;;25.53;15.93;;;;;;;;;;5037084;28;20219;-60
2022/03/10 01:12:18;;;;;;;22.97;14.63;;;;;;;;;;5036951;28;20219;-60
2022/03/10 01:14:43;;;;;;;24.87;15.03;;;;;;;;;;5043579;28;20570;-60
2022/03/10 01:17:09;;;;;;;21.47;13.90;;;;;;;;;;5044497;28;20207;-60
2022/03/10 01:19:34;;;;;;;24.63;13.87;;;;;;;;;;5044430;28;20219;-60
2022/03/10 01:21:59;;;;;;;20.93;13.70;;;;;;;;;;5062398;28;20210;-60
2022/03/10 01:24:24;;;;;;;21.87;14.00;;;;;;;;;;5063336;28;20218;-60
2022/03/10 01:26:50;;;;;;;20.63;13.27;;;;;;;;;;5063899;28;20687;-60
2022/03/10 01:29:15;;;;;;;31.23;15.00;;;;;;;;;;5058345;28;20225;-60
2022/03/10 01:31:40;;;;;;;27.43;14.97;;;;;;;;;;5056401;28;20214;-60
2022/03/10 01:34:06;;;;;;;22.73;14.10;;;;;;;;;;5055828;28;20230;-60
2022/03/10 01:36:31;;;;;;;22.87;14.37;;;;;;;;;;5059646;28;20210;-60
2022/03/10 01:38:56;;;;;;;23.30;13.60;;;;;;;;;;5063737;28;20210;-60
2022/03/10 01:41:22;;;;;;;24.30;13.83;;;;;;;;;;5062667;28;20674;-60
2022/03/10 01:44:05;;;;;;;21.80;13.80;;;;;;;;;;5065813;28;20222;-60
2022/03/10 01:46:30;;;;;;;22.53;13.50;;;;;;;;;;5066517;28;20214;-60
2022/03/10 01:48:56;;;;;;;20.33;13.67;;;;;;;;;;5067113;28;20203;-60
2022/03/10 01:51:21;;;;;;;22.33;13.25;;;;;;;;;;5062950;28;20222;-59
2022/03/10 01:53:50;;;;;;;21.47;14.13;;;;;;;;;;5041864;28;20225;-59
2022/03/10 01:56:15;;;;;;;20.43;13.87;;;;;;;;;;5052508;28;20239;-59
2022/03/10 01:58:41;;;;;;;22.60;13.83;;;;;;;;;;5041371;28;20295;-59
2022/03/10 02:01:08;;;;;;;21.50;13.63;;;;;;;;;;5029373;28;20679;-59
2022/03/10 02:03:34;;;;;;;24.37;15.43;;;;;;;;;;5046718;28;20555;-59
2022/03/10 02:05:59;;;;;;;23.00;13.57;;;;;;;;;;5047611;28;20222;-59
2022/03/10 02:11:08;;;;;;;21.00;13.97;;;;;;;;;;5049878;28;20611;-59
2022/03/10 02:13:34;;;;;;;23.83;13.77;;;;;;;;;;5065444;28;20218;-59
2022/03/10 02:18:43;;;;;;;22.90;14.10;;;;;;;;;;5057977;28;20792;-59
2022/03/10 02:21:08;;;;;;;22.20;14.53;;;;;;;;;;5060285;28;20222;-59
2022/03/10 02:23:33;;;;;;;22.00;13.67;;;;;;;;;;5066850;28;20234;-59
2022/03/10 02:25:59;;;;;;;22.50;14.23;;;;;;;;;;5065516;28;20616;-59
2022/03/10 02:28:24;;;;;;;22.73;13.83;;;;;;;;;;5066093;28;20218;-59
2022/03/10 02:30:50;;;;;;;22.17;14.30;;;;;;;;;;5066617;28;20210;-59
2022/03/10 02:33:15;;;;;;;21.20;14.10;;;;;;;;;;5065458;28;20625;-59
2022/03/10 02:35:40;;;;;;;24.23;13.83;;;;;;;;;;5066014;28;20218;-59
2022/03/10 02:38:05;;;;;;;19.93;13.40;;;;;;;;;;5059884;28;20210;-59
2022/03/10 02:40:31;;;;;;;23.53;14.30;;;;;;;;;;5057876;28;20214;-59
2022/03/10 02:42:56;;;;;;;23.00;14.70;;;;;;;;;;5058718;28;20202;-59
2022/03/10 02:45:22;;;;;;;21.53;14.63;;;;;;;;;;5052102;28;20211;-59
2022/03/10 02:47:47;;;;;;;26.40;16.83;;;;;;;;;;5065298;28;20305;-59
2022/03/10 02:50:13;;;;;;;23.50;14.60;;;;;;;;;;5065043;28;20693;-59
2022/03/10 02:52:38;;;;;;;23.10;14.07;;;;;;;;;;5066280;28;20305;-59
2022/03/10 02:55:04;;;;;;;23.67;14.50;;;;;;;;;;5064492;28;20570;-60
2022/03/10 02:57:31;;;;;;;21.60;14.00;;;;;;;;;;5049892;28;20293;-59
2022/03/10 02:59:56;;;;;;;22.83;14.37;;;;;;;;;;5042851;28;20246;-59
2022/03/10 03:02:22;;;;;;;24.47;15.20;;;;;;;;;;5038497;28;20215;-59
2022/03/10 03:04:47;;;;;;;23.43;14.70;;;;;;;;;;5039280;28;20207;-59
2022/03/10 03:07:12;;;;;;;23.67;14.13;;;;;;;;;;5041084;28;20215;-59
2022/03/10 03:09:37;;;;;;;23.57;15.07;;;;;;;;;;5045973;28;20268;-59
2022/03/10 03:12:03;;;;;;;24.23;14.27;;;;;;;;;;5045548;28;20218;-59
2022/03/10 03:14:28;;;;;;;25.13;14.53;;;;;;;;;;5045602;28;20329;-59
2022/03/10 03:16:56;;;;;;;20.87;13.83;;;;;;;;;;5045922;28;20218;-59
2022/03/10 03:19:21;;;;;;;22.48;14.57;;;;;;;;;;5047004;28;20586;-59
2022/03/10 03:21:46;;;;;;;24.90;15.70;;;;;;;;;;5051685;28;20236;-59
2022/03/10 03:24:12;;;;;;;21.77;14.43;;;;;;;;;;5038521;28;20249;-59
2022/03/10 03:26:37;;;;;;;23.43;14.50;;;;;;;;;;5038682;28;20286;-59
2022/03/10 03:29:02;;;;;;;22.00;14.13;;;;;;;;;;5038190;28;20300;-59
2022/03/10 03:31:28;;;;;;;22.67;15.30;;;;;;;;;;5045195;28;20241;-59
2022/03/10 03:33:53;;;;;;;24.30;14.70;;;;;;;;;;5064506;28;20565;-59
2022/03/10 03:36:18;;;;;;;22.13;14.27;;;;;;;;;;5063785;28;20249;-59
2022/03/10 03:38:43;;;;;;;22.33;14.60;;;;;;;;;;5065204;28;20284;-59
2022/03/10 03:41:09;;;;;;;22.33;14.37;;;;;;;;;;5064400;28;20206;-59
2022/03/10 03:43:34;;;;;;;23.63;14.37;;;;;;;;;;5064276;28;20285;-59
2022/03/10 03:45:59;;;;;;;22.10;14.03;;;;;;;;;;5043305;28;20590;-59
2022/03/10 03:48:24;;;;;;;22.10;13.73;;;;;;;;;;5037008;28;20214;-59
2022/03/10 03:50:50;;;;;;;28.00;15.03;;;;;;;;;;5037096;28;20337;-59
2022/03/10 03:53:15;;;;;;;22.40;14.27;;;;;;;;;;5041690;28;20893;-59
2022/03/10 03:55:40;;;;;;;26.20;14.40;;;;;;;;;;5045619;28;20226;-59
2022/03/10 03:58:06;;;;;;;23.20;15.23;;;;;;;;;;5044194;28;20207;-59
2022/03/10 04:00:31;;;;;;;22.13;14.63;;;;;;;;;;5044952;28;20210;-59
2022/03/10 04:02:56;;;;;;;24.20;14.77;;;;;;;;;;5045326;28;20219;-59
2022/03/10 04:05:22;;;;;;;24.63;14.97;;;;;;;;;;5043777;28;20218;-59
2022/03/10 04:07:47;;;;;;;23.27;14.50;;;;;;;;;;5043419;28;20237;-59
2022/03/10 04:10:12;;;;;;;25.20;14.97;;;;;;;;;;5036334;28;20207;-59
2022/03/10 04:12:37;;;;;;;25.07;14.40;;;;;;;;;;5037332;28;20211;-59
2022/03/10 04:15:03;;;;;;;24.17;13.93;;;;;;;;;;5019700;28;20223;-59
2022/03/10 04:17:28;;;;;;;25.03;14.20;;;;;;;;;;5043916;28;20226;-59
2022/03/10 04:19:53;;;;;;;24.87;13.40;;;;;;;;;;5044793;28;20207;-59
2022/03/10 04:22:19;;;;;;;24.20;14.40;;;;;;;;;;5044249;28;20768;-59
2022/03/10 04:24:44;;;;;;;26.90;14.70;;;;;;;;;;5044206;28;20264;-59
2022/03/10 04:27:10;;;;;;;24.97;15.00;;;;;;;;;;5063373;28;20210;-59
2022/03/10 04:29:35;;;;;;;22.77;14.37;;;;;;;;;;5064590;28;20249;-59
2022/03/10 04:32:00;;;;;;;19.57;13.40;;;;;;;;;;5057730;28;20856;-59
2022/03/10 04:34:26;;;;;;;23.90;14.70;;;;;;;;;;5056109;28;20222;-59
2022/03/10 04:36:51;;;;;;;23.30;14.33;;;;;;;;;;5056905;28;20695;-59
2022/03/10 04:39:16;;;;;;;22.87;14.37;;;;;;;;;;5059919;28;20211;-59
2022/03/10 04:41:42;;;;;;;22.30;14.07;;;;;;;;;;5063986;28;20267;-59
2022/03/10 04:44:07;;;;;;;22.67;14.80;;;;;;;;;;5063220;28;20608;-59
2022/03/10 04:46:32;;;;;;;23.70;14.40;;;;;;;;;;5063115;28;20706;-59
2022/03/10 04:48:57;;;;;;;21.37;14.20;;;;;;;;;;5063377;28;20255;-59
2022/03/10 04:51:23;;;;;;;22.30;14.30;;;;;;;;;;5044258;28;20230;-59
2022/03/10 04:53:48;;;;;;;22.80;15.10;;;;;;;;;;5041008;28;20310;-59
2022/03/10 04:56:13;;;;;;;23.73;14.40;;;;;;;;;;5036557;28;20233;-59
2022/03/10 04:58:39;;;;;;;24.53;14.50;;;;;;;;;;5036676;28;20219;-59
2022/03/10 05:01:04;;;;;;;20.90;14.10;;;;;;;;;;5038548;28;20594;-60
2022/03/10 05:03:31;;;;;;;24.27;14.40;;;;;;;;;;5044311;28;21056;-59
2022/03/10 05:05:56;;;;;;;27.47;14.77;;;;;;;;;;5046654;28;20203;-59
2022/03/10 05:08:21;;;;;;;23.30;14.03;;;;;;;;;;5043112;28;20214;-59
2022/03/10 05:10:47;;;;;;;24.93;14.03;;;;;;;;;;5044300;28;20249;-59
2022/03/10 05:13:12;;;;;;;22.03;13.93;;;;;;;;;;5043672;28;20211;-59
2022/03/10 05:15:37;;;;;;;23.77;14.30;;;;;;;;;;5043258;28;20223;-59
2022/03/10 05:18:03;;;;;;;26.30;14.63;;;;;;;;;;5058600;28;20217;-59
2022/03/10 05:20:28;;;;;;;25.43;15.10;;;;;;;;;;5059286;28;20257;-59
2022/03/10 05:22:54;;;;;;;25.53;14.93;;;;;;;;;;5060647;28;20313;-59
2022/03/10 05:25:20;;;;;;;24.33;15.17;;;;;;;;;;5065974;28;20233;-59
2022/03/10 05:27:45;;;;;;;23.67;15.13;;;;;;;;;;5067031;28;20210;-59
2022/03/10 05:30:10;;;;;;;22.57;15.17;;;;;;;;;;5067190;28;20218;-59
2022/03/10 05:32:36;;;;;;;27.27;15.23;;;;;;;;;;5070471;28;20206;-59
2022/03/10 05:35:02;;;;;;;24.00;15.03;;;;;;;;;;5051538;28;20231;-60
2022/03/10 05:37:28;;;;;;;23.50;14.57;;;;;;;;;;5048369;28;20590;-59
2022/03/10 05:39:54;;;;;;;24.73;14.50;;;;;;;;;;5048020;28;20218;-59
2022/03/10 05:42:19;;;;;;;23.07;14.53;;;;;;;;;;5044095;28;20776;-59
2022/03/10 05:44:44;;;;;;;24.57;14.93;;;;;;;;;;5040885;28;20217;-59
2022/03/10 05:47:10;;;;;;;25.13;15.80;;;;;;;;;;5039965;28;20272;-59
2022/03/10 05:49:35;;;;;;;22.00;14.47;;;;;;;;;;5041058;28;20281;-59
2022/03/10 05:52:01;;;;;;;25.10;14.97;;;;;;;;;;5046436;28;20219;-60
2022/03/10 05:54:26;;;;;;;24.13;14.27;;;;;;;;;;5047554;28;20227;-59
2022/03/10 05:56:51;;;;;;;21.77;14.70;;;;;;;;;;5046842;28;20570;-59
2022/03/10 05:59:17;;;;;;;23.30;15.47;;;;;;;;;;5046835;28;20581;-59
2022/03/10 06:01:42;;;;;;;22.60;14.17;;;;;;;;;;5047128;28;20576;-59
2022/03/10 06:04:07;;;;;;;22.80;14.30;;;;;;;;;;5046387;28;20686;-59
2022/03/10 06:06:32;;;;;;;23.60;14.10;;;;;;;;;;5040362;28;20313;-59
2022/03/10 06:08:58;;;;;;;24.43;15.40;;;;;;;;;;5040149;28;20211;-59
2022/03/10 06:11:23;;;;;;;23.77;14.70;;;;;;;;;;5039446;28;20215;-59
2022/03/10 06:13:48;;;;;;;22.97;15.57;;;;;;;;;;5046355;28;20223;-59
2022/03/10 06:16:13;;;;;;;26.23;15.33;;;;;;;;;;5047189;28;20300;-59
2022/03/10 06:18:39;;;;;;;24.30;14.93;;;;;;;;;;5046972;28;20301;-59
2022/03/10 06:21:04;;;;;;;23.43;14.20;;;;;;;;;;5046901;28;20226;-60
2022/03/10 06:23:30;;;;;;;22.93;14.10;;;;;;;;;;5066329;28;20210;-59
2022/03/10 06:25:55;;;;;;;22.90;14.40;;;;;;;;;;5065197;28;20237;-59
2022/03/10 06:28:20;;;;;;;48.63;16.33;;;;;;;;;;5060599;28;20218;-60
2022/03/10 06:30:46;;;;;;;23.97;14.53;;;;;;;;;;5058186;28;20697;-59
2022/03/10 06:33:11;;;;;;;25.10;16.03;;;;;;;;;;5055511;28;20214;-59
2022/03/10 06:35:36;;;;;;;24.90;15.70;;;;;;;;;;5043591;28;20223;-59
2022/03/10 06:38:02;;;;;;;23.90;15.80;;;;;;;;;;5044776;28;20435;-60
2022/03/10 06:40:27;;;;;;;22.77;14.10;;;;;;;;;;5046629;28;20693;-60
2022/03/10 06:42:53;;;;;;;26.60;17.23;;;;;;;;;;5045495;28;20452;-61
2022/03/10 06:45:18;;;;;;;27.00;17.60;;;;;;;;;;5044604;28;20423;-61
2022/03/10 06:47:43;;;;;;;22.45;14.55;;;;;;;;;;5046327;28;20301;-61
2022/03/10 06:50:09;;;;;;;24.50;14.13;;;;;;;;;;5043681;28;20567;-61
2022/03/10 06:52:34;;;;;;;25.63;14.23;;;;;;;;;;5039447;28;20215;-60
2022/03/10 06:54:59;;;;;;;24.27;14.43;;;;;;;;;;5038878;28;20223;-60
2022/03/10 06:57:24;;;;;;;23.03;14.20;;;;;;;;;;5039549;28;20222;-61
2022/03/10 06:59:50;;;;;;;23.53;14.47;;;;;;;;;;5064146;28;20219;-61
2022/03/10 07:02:16;;;;;;;21.70;14.07;;;;;;;;;;5065321;28;20230;-61
2022/03/10 07:04:42;;;;;;;22.30;14.00;;;;;;;;;;5058205;28;20805;-59
2022/03/10 07:07:07;;;;;;;21.63;13.75;;;;;;;;;;5045348;28;20702;-61
2022/03/10 07:09:32;;;;;;;23.15;14.35;;;;;;;;;;5046305;28;20211;-61
2022/03/10 07:11:58;;;;;;;21.15;13.60;;;;;;;;;;5046270;28;20207;-61
2022/03/10 07:14:24;;;;;;;26.10;13.90;;;;;;;;;;5039205;28;20618;-60
2022/03/10 07:16:49;;;;;;;21.05;13.52;;;;;;;;;;5039702;28;20237;-61
2022/03/10 07:19:14;;;;;;;21.30;13.77;;;;;;;;;;5039137;28;20297;-61
2022/03/10 07:21:40;;;;;;;21.73;14.95;;;;;;;;;;5043962;28;20309;-61
2022/03/10 07:24:05;;;;;;;20.98;14.45;;;;;;;;;;5045753;28;20206;-61
2022/03/10 07:26:30;;;;;;;25.13;15.50;;;;;;;;;;5046230;28;20207;-61
2022/03/10 07:28:59;;;;;;;20.45;14.18;;;;;;;;;;5045431;28;20219;-61
2022/03/10 07:31:24;;;;;;;23.37;15.17;;;;;;;;;;5064617;28;20242;-67
2022/03/10 07:33:49;;;;;;;25.67;15.35;;;;;;;;;;5057849;28;20281;-67
2022/03/10 07:36:15;;;;;;;25.67;15.73;;;;;;;;;;5041508;28;20211;-66
2022/03/10 07:38:40;;;;;;;22.65;14.38;;;;;;;;;;5036171;28;20310;-70
2022/03/10 07:41:06;;;;;;;22.80;13.63;;;;;;;;;;5035989;28;20620;-70
2022/03/10 07:43:32;;;;;;;27.97;16.03;;;;;;;;;;5041550;28;20242;-68
2022/03/10 07:45:57;;;;;;;22.63;15.35;;;;;;;;;;5058829;28;20254;-68
2022/03/10 07:48:22;;;;;;;22.77;14.70;;;;;;;;;;5063770;28;20669;-66
2022/03/10 07:50:48;;;;;;;21.83;15.02;;;;;;;;;;5056855;28;20238;-66
2022/03/10 07:53:13;;;;;;;23.83;15.38;;;;;;;;;;5045514;28;20572;-66
2022/03/10 07:55:38;;;;;;;24.60;14.75;;;;;;;;;;5044928;28;20228;-67
2022/03/10 07:58:03;;;;;;;22.35;13.98;;;;;;;;;;5044207;28;20242;-66
2022/03/10 08:00:31;;;;;;;23.80;14.88;;;;;;;;;;5040060;28;20223;-66
2022/03/10 08:02:56;;;;;;;22.27;15.13;;;;;;;;;;5049770;28;20207;-66
2022/03/10 08:05:22;;;;;;;21.75;15.10;;;;;;;;;;5063186;28;20213;-65
2022/03/10 08:07:47;;;;;;;24.20;15.27;;;;;;;;;;5070479;28;20283;-67
2022/03/10 08:10:12;;;;;;;23.25;14.98;;;;;;;;;;5069471;28;20252;-65
2022/03/10 08:12:37;;;;;;;24.48;15.40;;;;;;;;;;5070624;28;20198;-68
2022/03/10 08:15:03;;;;;;;21.67;14.55;;;;;;;;;;5068226;28;20218;-67
2022/03/10 08:17:28;;;;;;;22.15;14.15;;;;;;;;;;5049997;28;20211;-68
2022/03/10 08:19:54;;;;;;;22.27;15.25;;;;;;;;;;5050524;28;20286;-70
2022/03/10 08:22:19;;;;;;;24.05;15.43;;;;;;;;;;5050031;28;20690;-69
2022/03/10 08:24:45;;;;;;;22.73;14.40;;;;;;;;;;5048713;28;20233;-70
2022/03/10 08:27:10;;;;;;;21.20;14.82;;;;;;;;;;5050133;28;20350;-69
2022/03/10 08:29:35;;;;;;;39.40;20.77;;;;;;;;;;5032559;28;20302;-68
2022/03/10 08:32:01;;;;;;;77.90;36.95;;;;;;;;;;5054331;28;20575;-64
2022/03/10 08:34:26;;;;;;;25.27;15.48;;;;;;;;;;5051342;28;20226;-70
2022/03/10 08:36:51;;;;;;;22.55;15.07;;;;;;;;;;5070433;28;20630;-70
2022/03/10 08:39:17;;;;;;;26.42;17.60;;;;;;;;;;5070036;28;20209;-70
2022/03/10 08:41:43;;;;;;;28.15;17.60;;;;;;;;;;5070298;28;20218;-74
2022/03/10 08:44:08;;;;;;;25.85;16.50;;;;;;;;;;5067414;28;20614;-74
2022/03/10 08:46:33;;;;;;;28.30;18.40;;;;;;;;;;5049327;28;20217;-72
2022/03/10 08:48:59;;;;;;;27.17;17.83;;;;;;;;;;5050453;28;20290;-72
2022/03/10 08:51:24;;;;;;;22.83;15.48;;;;;;;;;;5049027;28;20238;-74
2022/03/10 08:53:50;;;;;;;23.48;15.45;;;;;;;;;;5049334;28;20669;-70
2022/03/10 08:56:15;;;;;;;40.83;22.40;;;;;;;;;;5049875;28;20211;-68
2022/03/10 08:58:40;;;;;;;29.58;18.67;;;;;;;;;;5049689;28;20569;-68
2022/03/10 09:01:06;;;;;;;29.42;18.33;;;;;;;;;;5049330;28;20210;-67
2022/03/10 09:03:31;;;;;;;29.13;19.60;;;;;;;;;;5057967;28;20689;-62
2022/03/10 09:05:56;;;;;;;24.92;15.82;;;;;;;;;;5058934;28;20321;-62
2022/03/10 09:08:23;;;;;;;22.40;15.45;;;;;;;;;;5064374;28;20217;-62
2022/03/10 09:10:49;;;;;;;30.40;18.58;;;;;;;;;;5050074;28;20211;-62
2022/03/10 09:13:14;;;;;;;28.55;17.77;;;;;;;;;;5054616;28;20209;-62
2022/03/10 09:15:39;;;;;;;23.08;16.73;;;;;;;;;;5049688;28;20258;-62
2022/03/10 09:18:05;;;;;;;26.85;15.93;;;;;;;;;;5049599;28;20306;-62
2022/03/10 09:20:30;;;;;;;26.17;16.17;;;;;;;;;;5049472;28;20211;-62
2022/03/10 09:22:55;;;;;;;24.20;16.15;;;;;;;;;;5049767;28;20678;-61
2022/03/10 09:25:20;;;;;;;30.02;19.00;;;;;;;;;;5049507;28;20222;-62
2022/03/10 09:27:47;;;;;;;20.27;15.52;;;;;;;;;;5049241;28;20758;-62
2022/03/10 09:30:12;;;;;;;20.85;15.35;;;;;;;;;;5049090;28;20796;-62
2022/03/10 09:32:38;;;;;;;20.20;15.63;;;;;;;;;;5049895;28;20290;-62
2022/03/10 09:35:04;;;;;;;21.00;15.63;;;;;;;;;;5048724;28;20252;-62
2022/03/10 09:37:29;;;;;;;24.25;18.48;;;;;;;;;;5049757;28;20288;-62
2022/03/10 09:39:54;;;;;;;24.40;17.20;;;;;;;;;;5049711;28;20225;-61
2022/03/10 09:42:20;;;;;;;28.67;18.10;;;;;;;;;;5048477;28;20219;-61
2022/03/10 09:44:45;;;;;;;23.15;16.02;;;;;;;;;;5049460;28;20219;-62
2022/03/10 09:47:10;;;;;;;25.90;16.20;;;;;;;;;;5049313;28;20238;-62
2022/03/10 09:49:36;;;;;;;24.90;15.60;;;;;;;;;;5048649;28;20204;-62
2022/03/10 09:52:01;;;;;;;20.33;15.50;;;;;;;;;;5048848;28;20230;-62
2022/03/10 09:54:27;;;;;;;21.90;15.60;;;;;;;;;;5049291;28;20223;-61
2022/03/10 09:56:54;;;;;;;21.60;16.45;;;;;;;;;;5048932;28;20302;-61
2022/03/10 09:59:20;;;;;;;19.83;15.77;;;;;;;;;;5048748;28;20209;-62
2022/03/10 10:01:45;;;;;;;20.00;15.50;;;;;;;;;;5047711;28;20575;-61
2022/03/10 10:04:11;;;;;;;24.98;15.43;;;;;;;;;;5034825;28;20198;-61
2022/03/10 10:07:03;;;;;;;22.05;15.18;;;;;;;;;;5073110;28;20211;-61
2022/03/10 10:09:41;;;;;;;21.88;15.27;;;;;;;;;;5086763;28;20215;-61
2022/03/10 10:12:07;;;;;;;24.38;15.77;;;;;;;;;;5092710;28;20210;-61
2022/03/10 10:14:41;;;;;;;22.23;15.90;;;;;;;;;;5058354;28;20755;-61
2022/03/10 10:17:07;;;;;;;24.30;15.98;;;;;;;;;;5051808;28;20797;-61
2022/03/10 10:19:33;;;;;;;23.75;16.30;;;;;;;;;;5052931;28;20230;-62
2022/03/10 10:22:08;;;;;;;25.15;17.10;;;;;;;;;;5052940;28;20211;-61
2022/03/10 10:24:35;;;;;;;24.90;15.98;;;;;;;;;;5051817;28;20222;-61
2022/03/10 10:27:13;;;;;;;26.02;16.63;;;;;;;;;;5056752;28;20555;-61
2022/03/10 10:29:45;;;;;;;24.25;17.00;;;;;;;;;;5037721;28;20215;-61
2022/03/10 10:32:10;;;;;;;24.30;16.63;;;;;;;;;;5051619;28;20219;-60
2022/03/10 10:34:35;;;;;;;22.67;16.27;;;;;;;;;;5034628;28;20222;-60
2022/03/10 10:37:01;;;;;;;27.27;17.17;;;;;;;;;;5051567;28;20221;-61
2022/03/10 10:39:26;;;;;;;27.77;17.30;;;;;;;;;;5052449;28;20214;-61
2022/03/10 10:41:51;;;;;;;23.05;15.68;;;;;;;;;;5034564;28;20568;-61
2022/03/10 10:44:18;;;;;;;27.08;17.35;;;;;;;;;;5051065;28;20213;-59
2022/03/10 10:46:44;;;;;;;22.85;15.88;;;;;;;;;;5052609;28;20235;-59
2022/03/10 10:49:10;;;;;;;24.13;16.45;;;;;;;;;;5051900;28;20238;-64
2022/03/10 10:51:39;;;;;;;21.85;16.15;;;;;;;;;;5033618;28;20239;-59
2022/03/10 10:54:05;;;;;;;25.60;16.77;;;;;;;;;;5051469;28;20281;-59
2022/03/10 10:56:30;;;;;;;24.75;16.52;;;;;;;;;;5052379;28;20701;-59
2022/03/10 10:58:56;;;;;;;22.67;16.33;;;;;;;;;;5051176;28;20207;-59
2022/03/10 11:01:28;;;;;;;23.05;16.30;;;;;;;;;;5051630;28;20227;-59
2022/03/10 11:03:53;;;;;;;25.33;16.65;;;;;;;;;;5053145;28;20207;-59
2022/03/10 11:06:20;;;;;;;26.90;16.67;;;;;;;;;;5070871;28;20217;-59
2022/03/10 11:08:45;;;;;;;23.10;15.55;;;;;;;;;;5054228;28;20210;-59
2022/03/10 11:11:11;;;;;;;21.42;16.35;;;;;;;;;;5053494;28;20624;-60
2022/03/10 11:13:36;;;;;;;22.73;15.68;;;;;;;;;;5040986;28;20218;-59
2022/03/10 11:16:01;;;;;;;23.45;16.30;;;;;;;;;;5051245;28;20238;-60
2022/03/10 11:18:27;;;;;;;23.20;15.88;;;;;;;;;;5051952;28;20222;-59
2022/03/10 11:20:57;;;;;;;23.08;16.33;;;;;;;;;;5016471;28;20294;-59
2022/03/10 11:23:27;;;;;;;23.77;16.55;;;;;;;;;;5033363;28;20207;-59
2022/03/10 11:25:54;;;;;;;24.05;16.38;;;;;;;;;;5051448;28;20561;-59
2022/03/10 11:28:21;;;;;;;22.38;16.65;;;;;;;;;;5032388;28;20294;-59
2022/03/10 11:30:48;;;;;;;25.55;15.73;;;;;;;;;;5033822;28;20353;-59
2022/03/10 11:33:13;;;;;;;20.73;14.73;;;;;;;;;;5051093;28;20211;-59
2022/03/10 11:35:39;;;;;;;21.60;16.45;;;;;;;;;;5050838;28;20226;-59
2022/03/10 11:38:05;;;;;;;21.88;16.05;;;;;;;;;;5033267;28;20305;-59
2022/03/10 11:40:41;;;;;;;23.33;16.48;;;;;;;;;;5050622;28;20345;-59
2022/03/10 11:43:06;;;;;;;20.90;14.02;;;;;;;;;;5050579;28;20219;-59
2022/03/10 11:45:32;;;;;;;21.02;14.73;;;;;;;;;;5064891;28;20233;-59
2022/03/10 11:48:25;;;;;;;23.90;16.67;;;;;;;;;;5070510;28;20210;-59
2022/03/10 11:50:50;;;;;;;22.75;15.80;;;;;;;;;;5070394;28;20241;-59
2022/03/10 11:53:16;;;;;;;25.48;16.15;;;;;;;;;;5070593;28;20214;-59
2022/03/10 11:55:43;;;;;;;20.65;13.43;;;;;;;;;;5070139;28;20234;-59
2022/03/10 11:58:10;;;;;;;23.48;16.10;;;;;;;;;;5070278;28;20210;-60
2022/03/10 12:00:39;;;;;;;23.20;15.88;;;;;;;;;;5071106;28;20257;-60
2022/03/10 12:03:04;;;;;;;23.38;16.10;;;;;;;;;;5069788;28;20219;-61
2022/03/10 12:05:59;;;;;;;21.23;14.88;;;;;;;;;;5038782;28;20693;-60
2022/03/10 12:08:29;;;;;;;26.02;16.17;;;;;;;;;;5050328;28;20207;-61
2022/03/10 12:10:55;;;;;;;24.13;16.13;;;;;;;;;;5050782;28;20294;-61
2022/03/10 12:13:21;;;;;;;23.10;16.80;;;;;;;;;;5053828;28;20309;-61
2022/03/10 12:15:46;;;;;;;23.60;16.58;;;;;;;;;;5069980;28;20236;-60
2022/03/10 12:18:12;;;;;;;25.15;16.20;;;;;;;;;;5070170;28;20221;-60
2022/03/10 12:20:38;;;;;;;22.23;15.63;;;;;;;;;;5070751;28;20214;-60
2022/03/10 12:23:03;;;;;;;23.42;16.73;;;;;;;;;;5069445;28;20214;-61
2022/03/10 12:25:29;;;;;;;23.45;15.98;;;;;;;;;;5070635;28;20228;-60
2022/03/10 12:27:54;;;;;;;24.27;16.33;;;;;;;;;;5069848;28;20267;-60
2022/03/10 12:30:21;;;;;;;20.95;14.52;;;;;;;;;;5051464;28;20210;-60
2022/03/10 12:32:47;;;;;;;23.45;15.45;;;;;;;;;;5070472;28;20206;-60
2022/03/10 12:35:12;;;;;;;22.17;14.32;;;;;;;;;;5052229;28;20252;-60
2022/03/10 12:37:37;;;;;;;22.10;15.15;;;;;;;;;;5052170;28;20550;-60
2022/03/10 12:40:02;;;;;;;22.15;15.52;;;;;;;;;;5070047;28;20218;-60
2022/03/10 12:42:28;;;;;;;23.23;16.00;;;;;;;;;;5070272;28;20572;-60
2022/03/10 12:44:54;;;;;;;26.77;15.02;;;;;;;;;;5042971;28;20222;-60
2022/03/10 12:47:19;;;;;;;27.05;15.52;;;;;;;;;;5032102;28;20300;-60
2022/03/10 12:49:46;;;;;;;25.05;16.48;;;;;;;;;;5032701;28;20615;-60
2022/03/10 12:52:12;;;;;;;22.00;16.05;;;;;;;;;;5048678;28;20713;-60
2022/03/10 12:54:38;;;;;;;23.40;16.00;;;;;;;;;;5050328;28;20321;-60
2022/03/10 12:57:04;;;;;;;22.48;14.50;;;;;;;;;;5048969;28;20672;-60
2022/03/10 12:59:32;;;;;;;27.13;15.40;;;;;;;;;;5049206;28;20211;-60
2022/03/10 13:02:11;;;;;;;25.90;16.02;;;;;;;;;;5050254;28;20208;-60
2022/03/10 13:04:45;;;;;;;23.85;15.63;;;;;;;;;;5056723;28;20214;-60
2022/03/10 13:07:12;;;;;;;20.25;14.98;;;;;;;;;;5069696;28;20203;-61
2022/03/10 13:09:37;;;;;;;19.75;14.48;;;;;;;;;;5070128;28;20569;-60
2022/03/10 13:12:03;;;;;;;21.60;15.23;;;;;;;;;;5050916;28;20218;-60
2022/03/10 13:14:29;;;;;;;18.42;12.70;;;;;;;;;;5032713;28;20313;-60
2022/03/10 13:16:54;;;;;;;17.38;11.93;;;;;;;;;;5050123;28;20273;-60
2022/03/10 13:19:23;;;;;;;21.00;12.50;;;;;;;;;;5048913;28;20382;-60
2022/03/10 13:21:49;;;;;;;18.70;13.23;;;;;;;;;;5050076;28;20285;-60
2022/03/10 13:24:35;;;;;;;18.42;12.13;;;;;;;;;;5049610;28;20211;-60
2022/03/10 13:27:02;;;;;;;18.67;12.23;;;;;;;;;;5049034;28;20215;-60
2022/03/10 13:29:27;;;;;;;20.27;12.63;;;;;;;;;;5049606;28;20215;-60
2022/03/10 13:31:52;;;;;;;20.08;12.68;;;;;;;;;;5049966;28;20221;-60
2022/03/10 13:34:18;;;;;;;19.92;13.07;;;;;;;;;;5048789;28;20227;-60
2022/03/10 13:36:43;;;;;;;21.95;12.90;;;;;;;;;;5032054;28;20747;-60
2022/03/10 13:39:09;;;;;;;21.70;13.25;;;;;;;;;;5033589;28;20222;-60
2022/03/10 13:41:34;;;;;;;19.30;12.32;;;;;;;;;;5052748;28;20221;-60
2022/03/10 13:44:09;;;;;;;21.70;13.48;;;;;;;;;;5036704;28;20233;-60
2022/03/10 13:46:35;;;;;;;18.48;12.88;;;;;;;;;;5055454;28;20214;-60
2022/03/10 13:49:00;;;;;;;20.65;13.32;;;;;;;;;;5072900;28;20214;-60
2022/03/10 13:51:26;;;;;;;20.50;11.88;;;;;;;;;;5072979;28;20761;-60
2022/03/10 13:53:52;;;;;;;18.45;12.80;;;;;;;;;;5055485;28;20210;-60
2022/03/10 13:56:17;;;;;;;19.10;12.35;;;;;;;;;;5037366;28;20211;-60
2022/03/10 13:58:42;;;;;;;20.27;12.50;;;;;;;;;;5073013;28;20217;-60
2022/03/10 14:01:08;;;;;;;17.98;12.27;;;;;;;;;;5060325;28;20207;-60
2022/03/10 14:03:34;;;;;;;19.50;12.45;;;;;;;;;;5053270;28;20222;-60
2022/03/10 14:06:00;;;;;;;20.88;12.70;;;;;;;;;;5053658;28;20657;-60
2022/03/10 14:08:25;;;;;;;19.10;12.18;;;;;;;;;;5072096;28;20225;-60
2022/03/10 14:10:56;;;;;;;20.10;12.10;;;;;;;;;;5073261;28;20207;-60
2022/03/10 14:13:22;;;;;;;20.55;12.70;;;;;;;;;;5062343;28;20294;-60
2022/03/10 14:15:50;;;;;;;22.60;13.60;;;;;;;;;;5052202;28;20317;-60